Ribehoj

DK-0070 · 南丹麦大区, 丹麦

使用的METAR站距离机场25 km。
罗盘
风向 的 风向 250° Ribehoj 16/34
风: 4 kt, 2 beaufort


4 kt
改变
0 ft 1.000 2.000 3.000 4.000 5.000
未检测到零云
METAR EKEB 230420Z AUTO 25004KT 9999 NCD 02/M00 Q1020

METAR Ribehoj - DK-0070

Ribehoj是,丹麦中的小机场。 该机场位于纬度55,43278和经度8,91556。 该机场有一条跑道: 16/34. 这个机场没有ICAO代码,我们使用DK-0070作为参考。 机场在Kobenhavn FIR中。

该航空气象观测是针对Esbjerg Airport在2024年4月23日 06:20, 当地时间进行的。

机场观察

风向为250°,速度为4 kt。

可见度为10 km 或者更多。

有未检测到零云。 没有观察到天花板。

温度为2 °C,阵风为-2 °C。 海平面上的气压为1020 hPa (QNH)。

白天

今天,太阳从05:59升起,在20:45降落。 这适用于Ribehoj,世界夏令时可能有所不同。 当地时间与世界标准时间之间的时差为+2 小时。 夏令时目前正在进行中。

公司介绍

我们没有关于这个机场的公司信息。

体会

到Vliegles.nl去找飞行课程,跳伞和其他飞行体验。 浏览页面,了解Ribehoj附近所有可用的活动。 你也可以使用搜索功能来寻找你所在地附近的特定飞行课程、跳伞或其他飞行体验。

跑道

Id 标题 侧风 逆风 侧风 %
16/34 160°-340° 4 kt 100 %

逆风成分最大的方向会被突出显示,并用于横风计算。 这并不一定意味着这个方向在使用。

乌云

- NCD 未检测到零云

温度 & 天气

温度 2 °C
露点 0 °C
相对湿度 87%
风寒 -2 °C
Kp-index 1 (0-9)

白天

日出
06:00
中午
13:24
日落
20:47 (13:56)

小工具

你想在你的网站上有一个关于Ribehoj的当前航空天气(METAR)的小部件吗?

显示HTML代码
报告变更